Batumi International Airport
UGSB : rendu visible

Aérodrome :











RETROUVEZ-NOUS SUR...

 
LOGIN :

S'inscrire | Disclaimer

   EN    FR    IT 

 









Légende :    VFR   VFR Marginal   IFR   IFR Intensif   IFR Très Intensif
Visi : 
Plafond : 
>= 8 km
>= 3000ft
5 à 8 km
1000 à 3000 ft
1500m à 5 km
500 à 1000 ft
800 à 1500m
200 à 500 ft
< 800m
< 200 ft
Symboles :   Orages  Brouillard  Fortes neiges  Fortes précipitations  Vent > 20 kt







- Altitude de l'aérodrome : 105 ft
- Code IATA : BUS


UGSB - Batumi International

DERNIER METAR :
  • 231500Z 31003KT 280V340 9999 FEW035 23/19 Q1018 R13/70D NOSIG

METARs EXPIRÉS :
  • 231430Z 30004KT 9999 FEW033 23/20 Q1018 R13/CLRD70 NOSIG
  • 231400Z 29006KT 9999 FEW030 24/19 Q1018 R13/CLRD70 NOSIG
  • 231330Z 28005KT 9999 FEW030 24/20 Q1018 R13/70D NOSIG
  • 231300Z 27005KT 230V290 9999 FEW030 24/20 Q1018 R13/CLRD70 NOSIG
  • 231230Z 28007KT 9999 FEW030 24/20 Q1018 R13/70D NOSIG

TAF TAF UGSB
Valide du 23 à 12h jusqu'au 24 à 12h UTC


231100Z 2312/2412 27007KT 9999 FEW025 SCT070 TX24/2312Z TN18/2401Z
BECMG 2317/2320 13013KT
BECMG 2406/2407 28007KT
FIR UGGG / Asie



MET'MAP, la Météo Aéronautique d'un coup d'oeil ! - Copyright ORBIFLY Décembre 2007 - Disclaimer

ORBIFLY MET'MAP TEAM :

Programmation & Développement : Alexandra Zaïnal
Conception & Développement : Baudouin d'Aumeries
Co-Programmation & Développement : Marc-Olivier Méhu
Soutien technique & logistique : Manuel Goepfert

Contact : metmap@orbifly.com




SOURCES & CREDITS :

   NOAA       Earth
Advisory